sensor_id;sensor_type;location;lat;lon;timestamp;pressure;altitude;pressure_sealevel;temperature;humidity
51053;BME280;37093;37.716;-122.060;2024-03-23T00:55:21;99549.09;;;17.96;51.02
51053;BME280;37093;37.716;-122.060;2024-03-23T00:57:40;99543.98;;;18.51;50.61
51053;BME280;37093;37.716;-122.060;2024-03-23T01:02:19;99533.53;;;19.53;47.21
51053;BME280;37093;37.716;-122.060;2024-03-23T01:06:58;99532.34;;;18.52;47.86
51053;BME280;37093;37.716;-122.060;2024-03-23T01:09:21;99520.10;;;19.72;46.06
51053;BME280;37093;37.716;-122.060;2024-03-23T01:11:43;99514.40;;;20.37;44.86
51053;BME280;37093;37.716;-122.060;2024-03-23T01:14:26;99517.94;;;18.91;46.37
51053;BME280;37093;37.716;-122.060;2024-03-23T01:16:31;99510.13;;;20.10;44.74
51053;BME280;37093;37.716;-122.060;2024-03-23T01:19:43;99522.38;;;18.56;47.60
51053;BME280;37093;37.716;-122.060;2024-03-23T01:21:52;99533.08;;;18.18;50.16
51053;BME280;37093;37.716;-122.060;2024-03-23T01:25:53;99532.18;;;17.80;51.87
51053;BME280;37093;37.716;-122.060;2024-03-23T01:26:48;99528.19;;;18.00;50.53
51053;BME280;37093;37.716;-122.060;2024-03-23T01:29:29;99522.49;;;18.15;52.17
51053;BME280;37093;37.716;-122.060;2024-03-23T01:32:16;99527.32;;;18.46;55.92
51053;BME280;37093;37.716;-122.060;2024-03-23T01:35:03;99526.66;;;18.72;60.18
51053;BME280;37093;37.716;-122.060;2024-03-23T01:37:22;99515.42;;;20.06;56.96
51053;BME280;37093;37.716;-122.060;2024-03-23T01:39:49;99510.51;;;19.90;55.33
51053;BME280;37093;37.716;-122.060;2024-03-23T01:42:11;99514.68;;;19.36;57.91
51053;BME280;37093;37.716;-122.060;2024-03-23T01:44:37;99510.03;;;19.70;58.24
51053;BME280;37093;37.716;-122.060;2024-03-23T01:47:01;99503.41;;;20.21;57.80
51053;BME280;37093;37.716;-122.060;2024-03-23T01:49:43;99491.17;;;20.38;56.67
51053;BME280;37093;37.716;-122.060;2024-03-23T01:51:51;99492.27;;;20.89;55.10
51053;BME280;37093;37.716;-122.060;2024-03-23T01:54:17;99489.90;;;19.71;55.77
51053;BME280;37093;37.716;-122.060;2024-03-23T01:56:41;99489.53;;;20.31;55.36
51053;BME280;37093;37.716;-122.060;2024-03-23T01:59:13;99493.13;;;19.53;58.43
51053;BME280;37093;37.716;-122.060;2024-03-23T02:01:31;99478.33;;;20.02;57.77
51053;BME280;37093;37.716;-122.060;2024-03-23T02:03:56;99477.82;;;20.83;54.84
51053;BME280;37093;37.716;-122.060;2024-03-23T02:06:21;99478.58;;;21.14;53.49
51053;BME280;37093;37.716;-122.060;2024-03-23T02:08:47;99480.76;;;21.57;53.04
51053;BME280;37093;37.716;-122.060;2024-03-23T02:11:12;99477.91;;;19.88;58.71
51053;BME280;37093;37.716;-122.060;2024-03-23T02:13:38;99481.20;;;19.59;60.48
51053;BME280;37093;37.716;-122.060;2024-03-23T02:16:06;99480.52;;;20.24;58.57
51053;BME280;37093;37.716;-122.060;2024-03-23T02:18:26;99490.03;;;18.59;66.25
51053;BME280;37093;37.716;-122.060;2024-03-23T02:20:53;99478.67;;;17.71;66.36
51053;BME280;37093;37.716;-122.060;2024-03-23T02:23:19;99476.06;;;18.85;64.32
51053;BME280;37093;37.716;-122.060;2024-03-23T02:25:44;99484.84;;;18.04;67.14
51053;BME280;37093;37.716;-122.060;2024-03-23T02:28:08;99483.36;;;17.82;68.94
51053;BME280;37093;37.716;-122.060;2024-03-23T02:30:33;99484.39;;;17.91;67.35
51053;BME280;37093;37.716;-122.060;2024-03-23T02:32:58;99485.54;;;18.55;63.94
51053;BME280;37093;37.716;-122.060;2024-03-23T02:35:24;99477.82;;;17.49;66.00
51053;BME280;37093;37.716;-122.060;2024-03-23T02:37:49;99476.49;;;18.43;64.30
51053;BME280;37093;37.716;-122.060;2024-03-23T02:40:37;99467.54;;;18.98;61.11
51053;BME280;37093;37.716;-122.060;2024-03-23T02:42:38;99476.58;;;18.63;61.43
51053;BME280;37093;37.716;-122.060;2024-03-23T02:45:08;99482.80;;;18.44;64.22
51053;BME280;37093;37.716;-122.060;2024-03-23T02:47:28;99490.52;;;18.57;66.82
51053;BME280;37093;37.716;-122.060;2024-03-23T02:49:53;99497.08;;;17.29;74.74
51053;BME280;37093;37.716;-122.060;2024-03-23T02:52:27;99504.69;;;17.38;76.91
51053;BME280;37093;37.716;-122.060;2024-03-23T02:54:45;99507.51;;;16.74;81.81
51053;BME280;37093;37.716;-122.060;2024-03-23T02:57:11;99499.88;;;16.70;85.38
51053;BME280;37093;37.716;-122.060;2024-03-23T02:59:44;99496.06;;;16.25;86.97
51053;BME280;37093;37.716;-122.060;2024-03-23T03:01:59;99491.62;;;16.96;86.68
51053;BME280;37093;37.716;-122.060;2024-03-23T03:04:25;99497.96;;;16.12;92.25
51053;BME280;37093;37.716;-122.060;2024-03-23T03:06:50;99501.80;;;12.93;100.00
51053;BME280;37093;37.716;-122.060;2024-03-23T03:09:15;99498.00;;;12.05;100.00
51053;BME280;37093;37.716;-122.060;2024-03-23T03:11:41;99497.65;;;12.05;100.00
51053;BME280;37093;37.716;-122.060;2024-03-23T03:14:05;99497.14;;;11.93;100.00
51053;BME280;37093;37.716;-122.060;2024-03-23T03:16:30;99497.97;;;12.34;100.00
51053;BME280;37093;37.716;-122.060;2024-03-23T03:18:55;99503.07;;;12.96;100.00
51053;BME280;37093;37.716;-122.060;2024-03-23T03:21:26;99509.24;;;14.06;100.00
51053;BME280;37093;37.716;-122.060;2024-03-23T03:23:45;99509.25;;;14.10;100.00
51053;BME280;37093;37.716;-122.060;2024-03-23T03:26:10;99510.12;;;13.15;100.00
51053;BME280;37093;37.716;-122.060;2024-03-23T03:28:48;99518.97;;;12.18;100.00
51053;BME280;37093;37.716;-122.060;2024-03-23T03:31:00;99520.93;;;12.35;100.00
51053;BME280;37093;37.716;-122.060;2024-03-23T03:33:26;99514.91;;;12.74;100.00
51053;BME280;37093;37.716;-122.060;2024-03-23T03:35:52;99519.01;;;11.06;100.00
51053;BME280;37093;37.716;-122.060;2024-03-23T03:38:16;99517.67;;;11.25;100.00
51053;BME280;37093;37.716;-122.060;2024-03-23T03:40:41;99518.56;;;10.70;100.00
51053;BME280;37093;37.716;-122.060;2024-03-23T03:43:07;99521.81;;;12.06;100.00
51053;BME280;37093;37.716;-122.060;2024-03-23T03:45:31;99531.79;;;13.13;100.00
51053;BME280;37093;37.716;-122.060;2024-03-23T03:47:57;99544.90;;;11.20;100.00
51053;BME280;37093;37.716;-122.060;2024-03-23T03:50:41;99552.87;;;11.26;100.00
51053;BME280;37093;37.716;-122.060;2024-03-23T03:53:11;99556.41;;;11.55;100.00
51053;BME280;37093;37.716;-122.060;2024-03-23T03:55:31;99563.21;;;13.57;100.00
51053;BME280;37093;37.716;-122.060;2024-03-23T03:57:57;99569.91;;;12.15;100.00
51053;BME280;37093;37.716;-122.060;2024-03-23T04:00:22;99565.77;;;14.19;98.53
51053;BME280;37093;37.716;-122.060;2024-03-23T04:02:48;99571.33;;;15.73;93.15
51053;BME280;37093;37.716;-122.060;2024-03-23T04:05:12;99574.32;;;14.47;95.25
51053;BME280;37093;37.716;-122.060;2024-03-23T04:07:37;99568.50;;;14.50;97.09
51053;BME280;37093;37.716;-122.060;2024-03-23T04:10:05;99569.19;;;15.84;90.44
51053;BME280;37093;37.716;-122.060;2024-03-23T04:12:28;99577.78;;;15.70;89.31
51053;BME280;37093;37.716;-122.060;2024-03-23T04:14:54;99572.67;;;15.09;88.42
51053;BME280;37093;37.716;-122.060;2024-03-23T04:17:18;99560.76;;;13.57;92.84
51053;BME280;37093;37.716;-122.060;2024-03-23T04:19:45;99554.23;;;14.73;93.97
51053;BME280;37093;37.716;-122.060;2024-03-23T04:22:09;99546.80;;;16.27;88.37
51053;BME280;37093;37.716;-122.060;2024-03-23T04:24:36;99533.15;;;16.95;81.86
51053;BME280;37093;37.716;-122.060;2024-03-23T04:27:01;99534.92;;;17.12;80.74
51053;BME280;37093;37.716;-122.060;2024-03-23T04:29:24;99549.67;;;17.47;77.32
51053;BME280;37093;37.716;-122.060;2024-03-23T04:31:50;99551.48;;;17.79;77.52
51053;BME280;37093;37.716;-122.060;2024-03-23T04:34:17;99556.25;;;18.06;75.86
51053;BME280;37093;37.716;-122.060;2024-03-23T04:36:39;99559.50;;;18.15;75.17
51053;BME280;37093;37.716;-122.060;2024-03-23T04:39:04;99560.95;;;18.12;74.41
51053;BME280;37093;37.716;-122.060;2024-03-23T04:41:29;99557.05;;;18.10;76.17
51053;BME280;37093;37.716;-122.060;2024-03-23T04:43:54;99557.93;;;18.20;73.99
51053;BME280;37093;37.716;-122.060;2024-03-23T04:46:22;99561.48;;;17.90;74.48
51053;BME280;37093;37.716;-122.060;2024-03-23T04:49:01;99557.87;;;17.89;74.42
51053;BME280;37093;37.716;-122.060;2024-03-23T04:51:10;99563.16;;;17.74;74.39
51053;BME280;37093;37.716;-122.060;2024-03-23T04:53:36;99559.76;;;18.21;76.89
51053;BME280;37093;37.716;-122.060;2024-03-23T04:56:00;99561.41;;;18.19;74.66
51053;BME280;37093;37.716;-122.060;2024-03-23T04:58:28;99554.49;;;17.86;73.64
51053;BME280;37093;37.716;-122.060;2024-03-23T05:00:54;99553.58;;;18.13;75.23
51053;BME280;37093;37.716;-122.060;2024-03-23T05:03:16;99540.93;;;18.07;73.34
51053;BME280;37093;37.716;-122.060;2024-03-23T05:05:41;99540.53;;;18.10;74.89
51053;BME280;37093;37.716;-122.060;2024-03-23T05:08:07;99543.18;;;17.68;76.17
51053;BME280;37093;37.716;-122.060;2024-03-23T05:10:34;99548.96;;;16.83;78.12
51053;BME280;37093;37.716;-122.060;2024-03-23T05:12:57;99559.61;;;16.58;80.15
51053;BME280;37093;37.716;-122.060;2024-03-23T05:15:22;99569.57;;;16.69;80.08
51053;BME280;37093;37.716;-122.060;2024-03-23T05:17:54;99563.22;;;16.55;81.74
51053;BME280;37093;37.716;-122.060;2024-03-23T05:20:12;99566.16;;;16.86;80.15
51053;BME280;37093;37.716;-122.060;2024-03-23T05:22:39;99553.94;;;16.99;79.98
51053;BME280;37093;37.716;-122.060;2024-03-23T05:25:02;99543.76;;;17.26;79.29
51053;BME280;37093;37.716;-122.060;2024-03-23T05:27:27;99530.19;;;16.23;78.98
51053;BME280;37093;37.716;-122.060;2024-03-23T05:29:53;99525.31;;;16.90;79.03
51053;BME280;37093;37.716;-122.060;2024-03-23T05:32:20;99521.86;;;17.44;79.57
51053;BME280;37093;37.716;-122.060;2024-03-23T05:34:45;99515.67;;;17.79;76.87
51053;BME280;37093;37.716;-122.060;2024-03-23T05:37:12;99512.93;;;17.89;75.89
51053;BME280;37093;37.716;-122.060;2024-03-23T05:39:33;99509.73;;;17.56;74.91
51053;BME280;37093;37.716;-122.060;2024-03-23T05:42:00;99516.82;;;17.94;74.89
51053;BME280;37093;37.716;-122.060;2024-03-23T05:44:26;99533.33;;;17.95;74.42
51053;BME280;37093;37.716;-122.060;2024-03-23T05:46:51;99541.63;;;17.24;75.19
51053;BME280;37093;37.716;-122.060;2024-03-23T05:49:21;99539.09;;;17.68;74.87
51053;BME280;37093;37.716;-122.060;2024-03-23T05:51:39;99535.52;;;17.39;76.23
51053;BME280;37093;37.716;-122.060;2024-03-23T05:54:20;99532.36;;;16.41;77.60
51053;BME280;37093;37.716;-122.060;2024-03-23T05:56:30;99518.06;;;16.00;84.27
51053;BME280;37093;37.716;-122.060;2024-03-23T05:58:56;99523.37;;;15.08;87.48
51053;BME280;37093;37.716;-122.060;2024-03-23T06:01:30;99540.37;;;14.94;88.01
51053;BME280;37093;37.716;-122.060;2024-03-23T06:03:45;99559.80;;;13.21;96.18
51053;BME280;37093;37.716;-122.060;2024-03-23T06:06:09;99571.50;;;15.96;88.60
51053;BME280;37093;37.716;-122.060;2024-03-23T06:08:36;99571.09;;;16.58;84.12
51053;BME280;37093;37.716;-122.060;2024-03-23T06:11:00;99563.83;;;16.21;83.86
51053;BME280;37093;37.716;-122.060;2024-03-23T06:13:26;99558.05;;;16.74;82.62
51053;BME280;37093;37.716;-122.060;2024-03-23T06:15:50;99555.57;;;17.06;80.08
51053;BME280;37093;37.716;-122.060;2024-03-23T06:18:17;99558.31;;;16.71;79.05
51053;BME280;37093;37.716;-122.060;2024-03-23T06:20:40;99558.76;;;15.01;87.12
51053;BME280;37093;37.716;-122.060;2024-03-23T06:23:05;99549.09;;;15.72;86.06
51053;BME280;37093;37.716;-122.060;2024-03-23T06:25:57;99543.60;;;15.12;85.32
51053;BME280;37093;37.716;-122.060;2024-03-23T06:27:55;99537.66;;;16.28;83.99
51053;BME280;37093;37.716;-122.060;2024-03-23T06:30:23;99550.04;;;16.42;82.00
51053;BME280;37093;37.716;-122.060;2024-03-23T06:32:45;99567.36;;;17.13;79.13
51053;BME280;37093;37.716;-122.060;2024-03-23T06:35:11;99566.51;;;17.17;76.44
51053;BME280;37093;37.716;-122.060;2024-03-23T06:37:51;99563.51;;;17.36;76.74
51053;BME280;37093;37.716;-122.060;2024-03-23T06:40:03;99563.18;;;17.60;74.65
51053;BME280;37093;37.716;-122.060;2024-03-23T06:42:26;99565.36;;;17.39;74.08
51053;BME280;37093;37.716;-122.060;2024-03-23T06:44:51;99558.84;;;17.48;75.33
51053;BME280;37093;37.716;-122.060;2024-03-23T06:47:17;99551.70;;;17.60;75.14
51053;BME280;37093;37.716;-122.060;2024-03-23T06:49:58;99537.58;;;17.74;74.83
51053;BME280;37093;37.716;-122.060;2024-03-23T06:52:11;99540.93;;;17.84;75.51
51053;BME280;37093;37.716;-122.060;2024-03-23T06:54:47;99544.16;;;17.61;74.67
51053;BME280;37093;37.716;-122.060;2024-03-23T06:57:02;99537.71;;;17.86;75.97
51053;BME280;37093;37.716;-122.060;2024-03-23T06:59:22;99536.22;;;17.69;74.59
51053;BME280;37093;37.716;-122.060;2024-03-23T07:01:47;99543.42;;;17.49;75.60
51053;BME280;37093;37.716;-122.060;2024-03-23T07:04:19;99536.86;;;14.47;82.06
51053;BME280;37093;37.716;-122.060;2024-03-23T07:06:45;99531.95;;;17.16;77.25
51053;BME280;37093;37.716;-122.060;2024-03-23T07:09:02;99542.24;;;17.40;75.32
51053;BME280;37093;37.716;-122.060;2024-03-23T07:11:29;99542.47;;;17.76;74.64
51053;BME280;37093;37.716;-122.060;2024-03-23T07:13:53;99538.18;;;17.83;74.50
51053;BME280;37093;37.716;-122.060;2024-03-23T07:16:28;99544.51;;;17.66;73.90
51053;BME280;37093;37.716;-122.060;2024-03-23T07:18:43;99549.24;;;17.19;75.16
51053;BME280;37093;37.716;-122.060;2024-03-23T07:21:14;99555.13;;;17.26;75.31
51053;BME280;37093;37.716;-122.060;2024-03-23T07:23:34;99553.82;;;17.37;77.00
51053;BME280;37093;37.716;-122.060;2024-03-23T07:26:01;99553.30;;;16.48;77.74
51053;BME280;37093;37.716;-122.060;2024-03-23T07:28:25;99552.34;;;16.95;77.16
51053;BME280;37093;37.716;-122.060;2024-03-23T07:31:00;99553.76;;;17.29;76.52
51053;BME280;37093;37.716;-122.060;2024-03-23T07:33:18;99548.15;;;16.75;78.68
51053;BME280;37093;37.716;-122.060;2024-03-23T07:35:38;99544.61;;;16.64;77.86
51053;BME280;37093;37.716;-122.060;2024-03-23T07:38:05;99545.34;;;17.32;77.31
51053;BME280;37093;37.716;-122.060;2024-03-23T07:40:29;99537.65;;;17.73;73.55
51053;BME280;37093;37.716;-122.060;2024-03-23T07:43:02;99527.63;;;18.01;74.29
51053;BME280;37093;37.716;-122.060;2024-03-23T07:45:28;99519.32;;;17.97;71.41
51053;BME280;37093;37.716;-122.060;2024-03-23T07:47:47;99518.12;;;17.95;72.11
51053;BME280;37093;37.716;-122.060;2024-03-23T07:50:17;99516.00;;;17.42;73.69
51053;BME280;37093;37.716;-122.060;2024-03-23T07:52:36;99515.42;;;16.65;78.17
51053;BME280;37093;37.716;-122.060;2024-03-23T07:54:59;99525.25;;;16.65;79.38
51053;BME280;37093;37.716;-122.060;2024-03-23T07:57:26;99521.42;;;17.19;77.23
51053;BME280;37093;37.716;-122.060;2024-03-23T07:59:49;99525.55;;;17.71;75.32
51053;BME280;37093;37.716;-122.060;2024-03-23T08:02:16;99525.50;;;17.58;75.34
51053;BME280;37093;37.716;-122.060;2024-03-23T08:04:41;99529.75;;;16.54;75.33
51053;BME280;37093;37.716;-122.060;2024-03-23T08:07:05;99529.13;;;16.87;78.71
51053;BME280;37093;37.716;-122.060;2024-03-23T08:09:31;99527.31;;;16.40;80.01
51053;BME280;37093;37.716;-122.060;2024-03-23T08:11:55;99528.45;;;17.14;79.84
51053;BME280;37093;37.716;-122.060;2024-03-23T08:14:22;99532.01;;;17.46;74.91
51053;BME280;37093;37.716;-122.060;2024-03-23T08:16:45;99532.91;;;17.58;77.84
51053;BME280;37093;37.716;-122.060;2024-03-23T08:19:11;99527.92;;;17.17;74.72
51053;BME280;37093;37.716;-122.060;2024-03-23T08:21:37;99520.20;;;16.92;76.89
51053;BME280;37093;37.716;-122.060;2024-03-23T08:24:01;99521.48;;;17.11;76.16
51053;BME280;37093;37.716;-122.060;2024-03-23T08:26:38;99518.42;;;16.82;76.65
51053;BME280;37093;37.716;-122.060;2024-03-23T08:28:54;99521.35;;;17.38;76.78
51053;BME280;37093;37.716;-122.060;2024-03-23T08:31:19;99524.12;;;17.36;73.78
51053;BME280;37093;37.716;-122.060;2024-03-23T08:33:43;99525.50;;;17.45;73.61
51053;BME280;37093;37.716;-122.060;2024-03-23T08:36:21;99527.78;;;17.63;72.91
51053;BME280;37093;37.716;-122.060;2024-03-23T08:38:33;99527.30;;;17.84;70.92
51053;BME280;37093;37.716;-122.060;2024-03-23T08:41:05;99523.35;;;17.67;70.61
51053;BME280;37093;37.716;-122.060;2024-03-23T08:43:28;99523.73;;;17.71;70.37
51053;BME280;37093;37.716;-122.060;2024-03-23T08:45:47;99525.91;;;18.03;68.30
51053;BME280;37093;37.716;-122.060;2024-03-23T08:48:20;99528.15;;;18.16;67.88
51053;BME280;37093;37.716;-122.060;2024-03-23T08:50:45;99534.54;;;18.11;68.28
51053;BME280;37093;37.716;-122.060;2024-03-23T08:53:02;99538.43;;;17.97;66.44
51053;BME280;37093;37.716;-122.060;2024-03-23T08:55:27;99539.43;;;18.23;67.41
51053;BME280;37093;37.716;-122.060;2024-03-23T08:57:53;99543.27;;;18.59;67.65
51053;BME280;37093;37.716;-122.060;2024-03-23T09:00:19;99543.72;;;18.49;65.55
51053;BME280;37093;37.716;-122.060;2024-03-23T09:02:42;99546.38;;;18.80;65.04
51053;BME280;37093;37.716;-122.060;2024-03-23T09:05:09;99542.66;;;18.58;64.55
51053;BME280;37093;37.716;-122.060;2024-03-23T09:07:37;99544.18;;;18.70;63.87
51053;BME280;37093;37.716;-122.060;2024-03-23T09:09:57;99542.67;;;18.85;64.33
51053;BME280;37093;37.716;-122.060;2024-03-23T09:12:24;99544.04;;;18.75;64.94
51053;BME280;37093;37.716;-122.060;2024-03-23T09:14:49;99542.10;;;18.59;62.99
51053;BME280;37093;37.716;-122.060;2024-03-23T09:17:21;99546.08;;;18.87;62.70
51053;BME280;37093;37.716;-122.060;2024-03-23T09:19:38;99543.51;;;18.78;63.77
51053;BME280;37093;37.716;-122.060;2024-03-23T09:22:03;99543.98;;;18.84;62.70
51053;BME280;37093;37.716;-122.060;2024-03-23T09:24:27;99542.83;;;18.99;62.83
51053;BME280;37093;37.716;-122.060;2024-03-23T09:27:02;99539.04;;;18.96;62.63
51053;BME280;37093;37.716;-122.060;2024-03-23T09:29:19;99536.89;;;19.16;61.95
51053;BME280;37093;37.716;-122.060;2024-03-23T09:31:46;99536.20;;;18.99;60.99
51053;BME280;37093;37.716;-122.060;2024-03-23T09:34:19;99533.77;;;19.08;60.32
51053;BME280;37093;37.716;-122.060;2024-03-23T09:36:41;99533.38;;;18.95;58.60
51053;BME280;37093;37.716;-122.060;2024-03-23T09:39:06;99530.26;;;18.97;60.35
51053;BME280;37093;37.716;-122.060;2024-03-23T09:41:28;99525.76;;;18.84;59.59
51053;BME280;37093;37.716;-122.060;2024-03-23T09:43:56;99524.27;;;18.78;60.09
51053;BME280;37093;37.716;-122.060;2024-03-23T09:46:19;99526.13;;;18.69;61.93
51053;BME280;37093;37.716;-122.060;2024-03-23T09:49:01;99529.20;;;18.76;60.08
51053;BME280;37093;37.716;-122.060;2024-03-23T09:51:23;99526.83;;;18.65;60.99
51053;BME280;37093;37.716;-122.060;2024-03-23T09:53:40;99523.91;;;18.68;60.34
51053;BME280;37093;37.716;-122.060;2024-03-23T09:56:05;99521.07;;;18.54;60.03
51053;BME280;37093;37.716;-122.060;2024-03-23T09:58:25;99522.45;;;18.57;57.88
51053;BME280;37093;37.716;-122.060;2024-03-23T10:00:49;99518.22;;;18.60;60.68
51053;BME280;37093;37.716;-122.060;2024-03-23T10:03:17;99516.85;;;18.85;59.65
51053;BME280;37093;37.716;-122.060;2024-03-23T10:05:44;99516.08;;;18.76;60.30
51053;BME280;37093;37.716;-122.060;2024-03-23T10:08:21;99515.28;;;18.87;60.30
51053;BME280;37093;37.716;-122.060;2024-03-23T10:10:29;99516.16;;;18.80;58.17
51053;BME280;37093;37.716;-122.060;2024-03-23T10:13:00;99515.98;;;18.99;56.71
51053;BME280;37093;37.716;-122.060;2024-03-23T10:15:27;99513.97;;;19.21;56.48
51053;BME280;37093;37.716;-122.060;2024-03-23T10:17:50;99508.04;;;19.24;55.16
51053;BME280;37093;37.716;-122.060;2024-03-23T10:20:23;99502.82;;;19.54;54.72
51053;BME280;37093;37.716;-122.060;2024-03-23T10:22:40;99497.32;;;19.55;53.59
51053;BME280;37093;37.716;-122.060;2024-03-23T10:25:10;99493.26;;;19.60;53.68
51053;BME280;37093;37.716;-122.060;2024-03-23T10:27:43;99489.38;;;19.69;53.89
51053;BME280;37093;37.716;-122.060;2024-03-23T10:29:51;99488.05;;;19.64;53.18
51053;BME280;37093;37.716;-122.060;2024-03-23T10:32:24;99491.77;;;19.61;52.83
51053;BME280;37093;37.716;-122.060;2024-03-23T10:35:26;99490.49;;;19.52;54.01
51053;BME280;37093;37.716;-122.060;2024-03-23T10:37:06;99486.01;;;19.42;53.11
51053;BME280;37093;37.716;-122.060;2024-03-23T10:39:49;99482.29;;;19.18;52.92
51053;BME280;37093;37.716;-122.060;2024-03-23T10:42:20;99474.90;;;16.77;56.97
51053;BME280;37093;37.716;-122.060;2024-03-23T10:44:30;99472.34;;;16.25;58.89
51053;BME280;37093;37.716;-122.060;2024-03-23T10:46:48;99478.70;;;18.24;57.15
51053;BME280;37093;37.716;-122.060;2024-03-23T10:49:11;99483.24;;;18.78;55.50
51053;BME280;37093;37.716;-122.060;2024-03-23T10:51:42;99483.06;;;18.69;56.37
51053;BME280;37093;37.716;-122.060;2024-03-23T10:54:05;99488.26;;;18.68;57.35
51053;BME280;37093;37.716;-122.060;2024-03-23T10:56:49;99494.11;;;18.63;57.88
51053;BME280;37093;37.716;-122.060;2024-03-23T10:58:59;99488.23;;;18.02;57.34
51053;BME280;37093;37.716;-122.060;2024-03-23T11:01:20;99493.05;;;17.89;58.79
51053;BME280;37093;37.716;-122.060;2024-03-23T11:03:47;99492.77;;;17.39;60.90
51053;BME280;37093;37.716;-122.060;2024-03-23T11:06:08;99489.12;;;17.47;60.78
51053;BME280;37093;37.716;-122.060;2024-03-23T11:08:34;99484.93;;;17.82;60.94
51053;BME280;37093;37.716;-122.060;2024-03-23T11:11:14;99489.96;;;15.03;68.46
51053;BME280;37093;37.716;-122.060;2024-03-23T11:13:30;99483.95;;;16.57;67.80
51053;BME280;37093;37.716;-122.060;2024-03-23T11:15:48;99482.30;;;16.98;66.15
51053;BME280;37093;37.716;-122.060;2024-03-23T11:18:12;99480.28;;;17.15;66.09
51053;BME280;37093;37.716;-122.060;2024-03-23T11:20:41;99479.48;;;17.20;64.81
51053;BME280;37093;37.716;-122.060;2024-03-23T11:23:04;99477.11;;;17.33;65.49
51053;BME280;37093;37.716;-122.060;2024-03-23T11:25:32;99478.88;;;17.59;62.86
51053;BME280;37093;37.716;-122.060;2024-03-23T11:27:56;99474.70;;;17.74;63.68
51053;BME280;37093;37.716;-122.060;2024-03-23T11:30:20;99468.20;;;17.92;63.65
51053;BME280;37093;37.716;-122.060;2024-03-23T11:32:44;99464.86;;;17.96;62.95
51053;BME280;37093;37.716;-122.060;2024-03-23T11:35:09;99462.60;;;18.15;61.07
51053;BME280;37093;37.716;-122.060;2024-03-23T11:37:41;99458.84;;;18.09;60.47
51053;BME280;37093;37.716;-122.060;2024-03-23T11:39:59;99456.20;;;18.12;61.22
51053;BME280;37093;37.716;-122.060;2024-03-23T11:42:25;99455.13;;;18.05;57.25
51053;BME280;37093;37.716;-122.060;2024-03-23T11:44:49;99456.96;;;17.98;58.30
51053;BME280;37093;37.716;-122.060;2024-03-23T11:47:18;99456.09;;;18.06;59.25
51053;BME280;37093;37.716;-122.060;2024-03-23T11:49:44;99451.19;;;18.23;59.06
51053;BME280;37093;37.716;-122.060;2024-03-23T11:52:09;99450.62;;;18.23;58.79
51053;BME280;37093;37.716;-122.060;2024-03-23T11:54:35;99449.49;;;18.27;57.38
51053;BME280;37093;37.716;-122.060;2024-03-23T11:57:07;99445.60;;;18.12;58.40
51053;BME280;37093;37.716;-122.060;2024-03-23T11:59:36;99451.64;;;18.22;59.50
51053;BME280;37093;37.716;-122.060;2024-03-23T12:01:47;99454.05;;;17.07;59.52
51053;BME280;37093;37.716;-122.060;2024-03-23T12:04:27;99456.22;;;17.84;58.23
51053;BME280;37093;37.716;-122.060;2024-03-23T12:06:38;99454.79;;;17.96;60.97
51053;BME280;37093;37.716;-122.060;2024-03-23T12:09:08;99455.48;;;18.05;60.93
51053;BME280;37093;37.716;-122.060;2024-03-23T12:11:35;99457.71;;;18.00;57.45
51053;BME280;37093;37.716;-122.060;2024-03-23T12:13:51;99458.96;;;17.96;59.53
51053;BME280;37093;37.716;-122.060;2024-03-23T12:16:18;99462.64;;;18.03;60.66
51053;BME280;37093;37.716;-122.060;2024-03-23T12:18:44;99461.76;;;18.06;60.93
51053;BME280;37093;37.716;-122.060;2024-03-23T12:21:17;99465.27;;;17.86;61.06
51053;BME280;37093;37.716;-122.060;2024-03-23T12:23:38;99458.84;;;18.03;62.26
51053;BME280;37093;37.716;-122.060;2024-03-23T12:25:57;99469.53;;;18.06;62.49
51053;BME280;37093;37.716;-122.060;2024-03-23T12:28:28;99468.34;;;18.15;60.59
51053;BME280;37093;37.716;-122.060;2024-03-23T12:30:50;99467.58;;;18.01;61.00
51053;BME280;37093;37.716;-122.060;2024-03-23T12:33:12;99467.66;;;18.10;60.67
51053;BME280;37093;37.716;-122.060;2024-03-23T12:35:37;99470.89;;;18.25;60.10
51053;BME280;37093;37.716;-122.060;2024-03-23T12:38:02;99471.08;;;18.11;60.83
51053;BME280;37093;37.716;-122.060;2024-03-23T12:40:31;99473.61;;;18.17;58.87
51053;BME280;37093;37.716;-122.060;2024-03-23T12:42:52;99475.34;;;17.94;59.39
51053;BME280;37093;37.716;-122.060;2024-03-23T12:45:19;99478.62;;;17.93;62.43
51053;BME280;37093;37.716;-122.060;2024-03-23T12:47:47;99483.00;;;18.22;63.01
51053;BME280;37093;37.716;-122.060;2024-03-23T12:50:13;99483.59;;;18.06;60.67
51053;BME280;37093;37.716;-122.060;2024-03-23T12:52:42;99487.14;;;17.91;61.50
51053;BME280;37093;37.716;-122.060;2024-03-23T12:55:03;99488.92;;;16.83;64.14
51053;BME280;37093;37.716;-122.060;2024-03-23T12:57:28;99482.56;;;16.02;64.35
51053;BME280;37093;37.716;-122.060;2024-03-23T12:59:48;99492.36;;;13.86;77.02
51053;BME280;37093;37.716;-122.060;2024-03-23T13:02:13;99481.33;;;16.24;71.66
51053;BME280;37093;37.716;-122.060;2024-03-23T13:05:10;99490.37;;;13.20;74.02
51053;BME280;37093;37.716;-122.060;2024-03-23T13:07:05;99488.26;;;14.63;72.08
51053;BME280;37093;37.716;-122.060;2024-03-23T13:10:01;99483.58;;;15.14;76.30
51053;BME280;37093;37.716;-122.060;2024-03-23T13:11:54;99484.59;;;16.40;70.06
51053;BME280;37093;37.716;-122.060;2024-03-23T13:14:26;99492.80;;;16.67;68.74
51053;BME280;37093;37.716;-122.060;2024-03-23T13:16:48;99493.75;;;16.54;69.89
51053;BME280;37093;37.716;-122.060;2024-03-23T13:19:10;99503.32;;;16.75;70.15